sensor_id;sensor_type;location;lat;lon;timestamp;pressure;altitude;pressure_sealevel;temperature;humidity
34742;BME280;20968;42.696;23.360;2023-05-20T00:04:29;95546.56;;;16.19;70.78
34742;BME280;20968;42.696;23.360;2023-05-20T00:13:40;95526.34;;;16.07;71.05
34742;BME280;20968;42.696;23.360;2023-05-20T00:26:27;95525.84;;;16.03;70.73
34742;BME280;20968;42.696;23.360;2023-05-20T00:58:30;95505.63;;;15.70;72.22
34742;BME280;20968;42.696;23.360;2023-05-20T01:05:08;95502.34;;;15.55;72.70
34742;BME280;20968;42.696;23.360;2023-05-20T01:08:08;95504.09;;;15.47;72.94
34742;BME280;20968;42.696;23.360;2023-05-20T01:38:21;95513.66;;;15.46;72.02
34742;BME280;20968;42.696;23.360;2023-05-20T01:54:41;95493.97;;;15.33;72.23
34742;BME280;20968;42.696;23.360;2023-05-20T02:01:01;95512.28;;;15.14;73.18
34742;BME280;20968;42.696;23.360;2023-05-20T02:04:23;95500.38;;;15.03;73.64
34742;BME280;20968;42.696;23.360;2023-05-20T02:10:08;95497.41;;;15.12;73.00
34742;BME280;20968;42.696;23.360;2023-05-20T02:17:24;95502.19;;;15.17;73.04
34742;BME280;20968;42.696;23.360;2023-05-20T02:27:35;95493.09;;;15.05;73.36
34742;BME280;20968;42.696;23.360;2023-05-20T02:30:19;95484.75;;;15.05;73.38
34742;BME280;20968;42.696;23.360;2023-05-20T02:36:25;95493.06;;;14.94;72.15
34742;BME280;20968;42.696;23.360;2023-05-20T02:46:32;95480.59;;;14.74;72.79
34742;BME280;20968;42.696;23.360;2023-05-20T02:49:32;95484.41;;;14.76;72.96
34742;BME280;20968;42.696;23.360;2023-05-20T02:52:31;95482.13;;;14.69;72.57
34742;BME280;20968;42.696;23.360;2023-05-20T02:55:21;95483.38;;;14.68;73.04
34742;BME280;20968;42.696;23.360;2023-05-20T02:58:23;95487.66;;;14.69;73.04
34742;BME280;20968;42.696;23.360;2023-05-20T03:01:33;95479.06;;;14.67;73.27
34742;BME280;20968;42.696;23.360;2023-05-20T03:04:52;95499.28;;;14.78;73.25
34742;BME280;20968;42.696;23.360;2023-05-20T03:07:59;95503.59;;;14.79;72.84
34742;BME280;20968;42.696;23.360;2023-05-20T03:14:10;95503.25;;;14.67;73.05
34742;BME280;20968;42.696;23.360;2023-05-20T03:16:56;95515.66;;;14.77;73.15
34742;BME280;20968;42.696;23.360;2023-05-20T03:23:13;95516.63;;;14.74;72.83
34742;BME280;20968;42.696;23.360;2023-05-20T03:25:50;95519.41;;;14.74;72.60
34742;BME280;20968;42.696;23.360;2023-05-20T03:39:30;95511.56;;;14.67;72.77
34742;BME280;20968;42.696;23.360;2023-05-20T03:46:01;95512.88;;;14.77;72.22
34742;BME280;20968;42.696;23.360;2023-05-20T03:56:25;95536.38;;;14.86;72.03
34742;BME280;20968;42.696;23.360;2023-05-20T04:02:44;95545.75;;;14.94;71.59
34742;BME280;20968;42.696;23.360;2023-05-20T04:15:39;95549.03;;;14.98;70.70
34742;BME280;20968;42.696;23.360;2023-05-20T04:18:37;95555.38;;;15.10;70.98
34742;BME280;20968;42.696;23.360;2023-05-20T04:24:55;95554.91;;;15.17;70.29
34742;BME280;20968;42.696;23.360;2023-05-20T04:34:45;95550.72;;;15.38;70.74
34742;BME280;20968;42.696;23.360;2023-05-20T04:41:18;95559.84;;;15.49;71.18
34742;BME280;20968;42.696;23.360;2023-05-20T04:50:45;95562.47;;;15.91;70.43
34742;BME280;20968;42.696;23.360;2023-05-20T04:53:58;95558.19;;;15.95;70.68
34742;BME280;20968;42.696;23.360;2023-05-20T04:56:51;95553.88;;;16.00;70.19
34742;BME280;20968;42.696;23.360;2023-05-20T04:59:49;95559.44;;;16.11;70.05
34742;BME280;20968;42.696;23.360;2023-05-20T05:06:15;95548.34;;;16.16;70.61
34742;BME280;20968;42.696;23.360;2023-05-20T05:08:50;95555.16;;;16.10;71.03
34742;BME280;20968;42.696;23.360;2023-05-20T05:11:46;95563.00;;;16.11;70.09
34742;BME280;20968;42.696;23.360;2023-05-20T05:15:05;95562.25;;;16.33;70.55
34742;BME280;20968;42.696;23.360;2023-05-20T05:17:51;95566.28;;;16.59;73.36
34742;BME280;20968;42.696;23.360;2023-05-20T05:20:17;95554.34;;;16.80;74.20
34742;BME280;20968;42.696;23.360;2023-05-20T05:22:43;95559.56;;;17.11;73.28
34742;BME280;20968;42.696;23.360;2023-05-20T05:25:40;95550.88;;;17.42;71.97
34742;BME280;20968;42.696;23.360;2023-05-20T05:28:06;95551.81;;;17.61;70.49
34742;BME280;20968;42.696;23.360;2023-05-20T05:30:34;95549.91;;;17.80;69.70
34742;BME280;20968;42.696;23.360;2023-05-20T05:32:59;95548.25;;;18.00;69.24
34742;BME280;20968;42.696;23.360;2023-05-20T05:35:26;95544.84;;;18.13;67.70
34742;BME280;20968;42.696;23.360;2023-05-20T05:37:57;95551.31;;;18.37;63.50
34742;BME280;20968;42.696;23.360;2023-05-20T05:40:23;95553.75;;;18.46;63.52
34742;BME280;20968;42.696;23.360;2023-05-20T05:42:49;95552.88;;;18.57;60.97
34742;BME280;20968;42.696;23.360;2023-05-20T05:45:15;95547.75;;;18.66;60.57
34742;BME280;20968;42.696;23.360;2023-05-20T05:47:42;95541.69;;;18.62;62.64
34742;BME280;20968;42.696;23.360;2023-05-20T05:50:11;95549.72;;;18.71;62.60
34742;BME280;20968;42.696;23.360;2023-05-20T05:52:39;95562.78;;;18.81;61.92
34742;BME280;20968;42.696;23.360;2023-05-20T05:55:11;95557.50;;;19.02;61.18
34742;BME280;20968;42.696;23.360;2023-05-20T05:57:44;95550.53;;;19.14;61.86
34742;BME280;20968;42.696;23.360;2023-05-20T06:00:13;95554.59;;;19.37;61.38
34742;BME280;20968;42.696;23.360;2023-05-20T06:02:40;95548.88;;;19.48;60.18
34742;BME280;20968;42.696;23.360;2023-05-20T06:05:06;95545.19;;;19.58;58.94
34742;BME280;20968;42.696;23.360;2023-05-20T06:07:37;95548.59;;;19.69;59.37
34742;BME280;20968;42.696;23.360;2023-05-20T06:10:05;95532.06;;;19.71;59.03
34742;BME280;20968;42.696;23.360;2023-05-20T06:12:35;95531.22;;;19.76;59.42
34742;BME280;20968;42.696;23.360;2023-05-20T06:15:04;95537.50;;;20.01;57.45
34742;BME280;20968;42.696;23.360;2023-05-20T06:17:31;95527.72;;;19.89;58.69
34742;BME280;20968;42.696;23.360;2023-05-20T06:19:57;95533.72;;;19.98;57.56
34742;BME280;20968;42.696;23.360;2023-05-20T06:22:26;95531.91;;;20.01;57.88
34742;BME280;20968;42.696;23.360;2023-05-20T06:24:56;95530.44;;;20.13;58.34
34742;BME280;20968;42.696;23.360;2023-05-20T06:29:51;95527.94;;;20.40;57.85
34742;BME280;20968;42.696;23.360;2023-05-20T06:32:17;95536.28;;;20.59;57.63
34742;BME280;20968;42.696;23.360;2023-05-20T06:34:50;95526.66;;;20.73;56.08
34742;BME280;20968;42.696;23.360;2023-05-20T06:37:19;95529.25;;;20.97;54.17
34742;BME280;20968;42.696;23.360;2023-05-20T06:40:05;95524.44;;;20.97;55.43
34742;BME280;20968;42.696;23.360;2023-05-20T06:42:40;95507.94;;;21.07;53.20
34742;BME280;20968;42.696;23.360;2023-05-20T06:45:08;95504.59;;;21.08;52.70
34742;BME280;20968;42.696;23.360;2023-05-20T06:47:57;95510.53;;;21.17;54.96
34742;BME280;20968;42.696;23.360;2023-05-20T06:50:27;95513.75;;;21.34;54.29
34742;BME280;20968;42.696;23.360;2023-05-20T06:53:04;95511.47;;;21.46;54.50
34742;BME280;20968;42.696;23.360;2023-05-20T06:56:18;95512.88;;;21.65;54.52
34742;BME280;20968;42.696;23.360;2023-05-20T06:59:04;95510.91;;;21.73;54.64
34742;BME280;20968;42.696;23.360;2023-05-20T07:01:43;95514.81;;;21.57;52.32
34742;BME280;20968;42.696;23.360;2023-05-20T07:04:10;95519.03;;;21.64;52.02
34742;BME280;20968;42.696;23.360;2023-05-20T07:06:41;95517.78;;;21.85;50.94
34742;BME280;20968;42.696;23.360;2023-05-20T07:09:11;95519.72;;;21.90;49.68
34742;BME280;20968;42.696;23.360;2023-05-20T07:11:39;95514.22;;;21.85;52.26
34742;BME280;20968;42.696;23.360;2023-05-20T07:14:10;95506.22;;;21.89;50.52
34742;BME280;20968;42.696;23.360;2023-05-20T07:16:50;95508.44;;;22.03;52.88
34742;BME280;20968;42.696;23.360;2023-05-20T07:19:27;95502.31;;;22.25;53.63
34742;BME280;20968;42.696;23.360;2023-05-20T07:22:15;95506.50;;;22.31;47.57
34742;BME280;20968;42.696;23.360;2023-05-20T07:28:50;95493.28;;;22.60;46.22
34742;BME280;20968;42.696;23.360;2023-05-20T07:34:25;95497.03;;;22.82;48.23
34742;BME280;20968;42.696;23.360;2023-05-20T07:36:51;95493.88;;;22.86;48.19
34742;BME280;20968;42.696;23.360;2023-05-20T07:39:22;95492.22;;;22.90;45.13
34742;BME280;20968;42.696;23.360;2023-05-20T07:42:24;95496.72;;;22.93;47.60
34742;BME280;20968;42.696;23.360;2023-05-20T07:44:53;95494.81;;;22.88;45.92
34742;BME280;20968;42.696;23.360;2023-05-20T07:47:38;95494.25;;;23.10;47.26
34742;BME280;20968;42.696;23.360;2023-05-20T07:50:10;95491.41;;;23.03;46.44
34742;BME280;20968;42.696;23.360;2023-05-20T07:59:44;95497.31;;;23.20;46.52
34742;BME280;20968;42.696;23.360;2023-05-20T08:02:26;95497.50;;;23.22;46.08
34742;BME280;20968;42.696;23.360;2023-05-20T08:04:54;95496.13;;;23.43;46.84
34742;BME280;20968;42.696;23.360;2023-05-20T08:10:56;95494.13;;;23.58;46.61
34742;BME280;20968;42.696;23.360;2023-05-20T08:13:22;95493.75;;;23.62;46.85
34742;BME280;20968;42.696;23.360;2023-05-20T08:15:48;95489.72;;;23.78;46.14
34742;BME280;20968;42.696;23.360;2023-05-20T08:18:14;95491.84;;;24.00;47.18
34742;BME280;20968;42.696;23.360;2023-05-20T08:20:41;95490.16;;;23.89;46.30
34742;BME280;20968;42.696;23.360;2023-05-20T08:23:07;95483.50;;;23.72;45.06
34742;BME280;20968;42.696;23.360;2023-05-20T08:25:32;95486.06;;;23.98;45.38
34742;BME280;20968;42.696;23.360;2023-05-20T08:28:00;95484.78;;;24.21;47.18
34742;BME280;20968;42.696;23.360;2023-05-20T08:30:28;95486.66;;;24.19;47.02
34742;BME280;20968;42.696;23.360;2023-05-20T08:32:53;95485.72;;;24.24;45.83
34742;BME280;20968;42.696;23.360;2023-05-20T08:35:18;95485.41;;;24.49;44.37
34742;BME280;20968;42.696;23.360;2023-05-20T08:37:44;95474.53;;;24.61;44.43
34742;BME280;20968;42.696;23.360;2023-05-20T08:40:10;95483.75;;;24.69;43.85
34742;BME280;20968;42.696;23.360;2023-05-20T08:42:42;95478.28;;;24.78;43.43
34742;BME280;20968;42.696;23.360;2023-05-20T08:45:11;95472.63;;;24.78;43.41
34742;BME280;20968;42.696;23.360;2023-05-20T08:47:40;95475.84;;;24.45;43.04
34742;BME280;20968;42.696;23.360;2023-05-20T08:50:08;95479.97;;;23.79;45.64
34742;BME280;20968;42.696;23.360;2023-05-20T08:52:36;95472.41;;;23.66;44.63
34742;BME280;20968;42.696;23.360;2023-05-20T08:55:18;95481.41;;;23.65;44.52
34742;BME280;20968;42.696;23.360;2023-05-20T08:58:01;95484.56;;;24.04;45.92
34742;BME280;20968;42.696;23.360;2023-05-20T09:00:27;95485.34;;;24.20;43.64
34742;BME280;20968;42.696;23.360;2023-05-20T09:02:54;95481.63;;;24.39;43.31
34742;BME280;20968;42.696;23.360;2023-05-20T09:05:24;95465.84;;;24.22;45.57
34742;BME280;20968;42.696;23.360;2023-05-20T09:07:49;95466.59;;;24.22;46.42
34742;BME280;20968;42.696;23.360;2023-05-20T09:10:15;95462.50;;;24.45;46.09
34742;BME280;20968;42.696;23.360;2023-05-20T09:12:41;95462.66;;;24.40;44.91
34742;BME280;20968;42.696;23.360;2023-05-20T09:15:19;95458.66;;;23.98;44.69
34742;BME280;20968;42.696;23.360;2023-05-20T09:17:48;95457.03;;;23.67;45.57
34742;BME280;20968;42.696;23.360;2023-05-20T09:20:14;95450.34;;;23.35;46.97
34742;BME280;20968;42.696;23.360;2023-05-20T09:23:00;95436.94;;;23.56;46.12
34742;BME280;20968;42.696;23.360;2023-05-20T09:25:26;95453.19;;;23.93;45.98
34742;BME280;20968;42.696;23.360;2023-05-20T09:27:53;95448.06;;;23.69;47.07
34742;BME280;20968;42.696;23.360;2023-05-20T09:30:19;95442.09;;;23.80;46.50
34742;BME280;20968;42.696;23.360;2023-05-20T09:32:52;95450.16;;;23.76;46.19
34742;BME280;20968;42.696;23.360;2023-05-20T09:35:17;95440.41;;;23.34;45.33
34742;BME280;20968;42.696;23.360;2023-05-20T09:38:04;95447.03;;;23.09;46.21
34742;BME280;20968;42.696;23.360;2023-05-20T09:40:35;95430.19;;;23.59;47.41
34742;BME280;20968;42.696;23.360;2023-05-20T09:43:23;95435.72;;;23.79;46.16
34742;BME280;20968;42.696;23.360;2023-05-20T09:46:05;95435.03;;;24.16;43.40
34742;BME280;20968;42.696;23.360;2023-05-20T09:48:32;95437.34;;;24.62;46.16
34742;BME280;20968;42.696;23.360;2023-05-20T09:51:00;95434.31;;;24.68;44.72
34742;BME280;20968;42.696;23.360;2023-05-20T09:53:27;95419.25;;;24.95;45.95
34742;BME280;20968;42.696;23.360;2023-05-20T09:55:54;95425.63;;;25.03;42.74
34742;BME280;20968;42.696;23.360;2023-05-20T09:58:21;95415.91;;;24.89;42.33
34742;BME280;20968;42.696;23.360;2023-05-20T10:00:47;95411.19;;;24.84;41.83
34742;BME280;20968;42.696;23.360;2023-05-20T10:03:12;95411.56;;;24.88;43.09
34742;BME280;20968;42.696;23.360;2023-05-20T10:05:42;95409.88;;;24.93;42.03
34742;BME280;20968;42.696;23.360;2023-05-20T10:08:18;95413.25;;;24.76;42.00
34742;BME280;20968;42.696;23.360;2023-05-20T10:11:26;95414.59;;;24.60;40.48
34742;BME280;20968;42.696;23.360;2023-05-20T10:14:06;95404.84;;;24.39;41.51
34742;BME280;20968;42.696;23.360;2023-05-20T10:19:11;95391.25;;;24.97;42.55
34742;BME280;20968;42.696;23.360;2023-05-20T10:21:38;95385.34;;;25.32;42.82
34742;BME280;20968;42.696;23.360;2023-05-20T10:24:08;95381.91;;;25.41;40.25
34742;BME280;20968;42.696;23.360;2023-05-20T10:26:37;95380.03;;;25.44;39.84
34742;BME280;20968;42.696;23.360;2023-05-20T10:29:15;95379.09;;;25.73;40.19
34742;BME280;20968;42.696;23.360;2023-05-20T10:31:49;95381.25;;;25.97;39.94
34742;BME280;20968;42.696;23.360;2023-05-20T10:34:16;95372.94;;;25.99;40.36
34742;BME280;20968;42.696;23.360;2023-05-20T10:39:23;95369.97;;;25.18;40.29
34742;BME280;20968;42.696;23.360;2023-05-20T10:41:50;95369.94;;;25.26;40.15
34742;BME280;20968;42.696;23.360;2023-05-20T10:44:16;95359.81;;;25.55;39.53
34742;BME280;20968;42.696;23.360;2023-05-20T10:46:41;95357.09;;;25.72;39.62
34742;BME280;20968;42.696;23.360;2023-05-20T10:49:19;95346.53;;;25.80;39.96
34742;BME280;20968;42.696;23.360;2023-05-20T10:51:45;95346.00;;;25.74;39.16
34742;BME280;20968;42.696;23.360;2023-05-20T10:54:12;95358.31;;;25.54;39.88
34742;BME280;20968;42.696;23.360;2023-05-20T10:56:39;95346.53;;;25.80;39.97
34742;BME280;20968;42.696;23.360;2023-05-20T10:59:05;95342.13;;;25.94;40.68
34742;BME280;20968;42.696;23.360;2023-05-20T11:01:31;95328.28;;;25.73;40.19
34742;BME280;20968;42.696;23.360;2023-05-20T11:03:57;95338.16;;;25.65;39.86
34742;BME280;20968;42.696;23.360;2023-05-20T11:06:26;95330.81;;;25.62;39.81
34742;BME280;20968;42.696;23.360;2023-05-20T11:09:03;95336.81;;;25.34;39.86
34742;BME280;20968;42.696;23.360;2023-05-20T11:11:32;95339.41;;;24.85;40.83
34742;BME280;20968;42.696;23.360;2023-05-20T11:13:57;95340.34;;;24.88;41.84
34742;BME280;20968;42.696;23.360;2023-05-20T11:16:24;95333.63;;;24.68;43.16
34742;BME280;20968;42.696;23.360;2023-05-20T11:18:50;95341.56;;;24.18;42.98
34742;BME280;20968;42.696;23.360;2023-05-20T11:21:17;95317.53;;;23.87;42.28
34742;BME280;20968;42.696;23.360;2023-05-20T11:23:44;95335.19;;;23.80;43.15
34742;BME280;20968;42.696;23.360;2023-05-20T11:26:09;95311.00;;;24.07;42.33
34742;BME280;20968;42.696;23.360;2023-05-20T11:28:35;95310.38;;;24.38;42.25
34742;BME280;20968;42.696;23.360;2023-05-20T11:31:01;95305.53;;;24.16;42.76
34742;BME280;20968;42.696;23.360;2023-05-20T11:33:26;95312.09;;;23.89;42.97
34742;BME280;20968;42.696;23.360;2023-05-20T11:35:52;95301.94;;;23.71;43.97
34742;BME280;20968;42.696;23.360;2023-05-20T11:38:22;95302.13;;;23.73;43.77
34742;BME280;20968;42.696;23.360;2023-05-20T11:41:09;95297.25;;;23.66;44.02
34742;BME280;20968;42.696;23.360;2023-05-20T11:43:36;95299.88;;;23.56;44.41
34742;BME280;20968;42.696;23.360;2023-05-20T11:46:03;95292.19;;;23.50;44.09
34742;BME280;20968;42.696;23.360;2023-05-20T11:48:29;95295.38;;;23.61;44.30
34742;BME280;20968;42.696;23.360;2023-05-20T11:50:55;95297.41;;;23.38;43.64
34742;BME280;20968;42.696;23.360;2023-05-20T11:53:22;95295.00;;;23.50;43.66
34742;BME280;20968;42.696;23.360;2023-05-20T11:58:19;95292.38;;;23.59;43.15
34742;BME280;20968;42.696;23.360;2023-05-20T12:01:06;95292.75;;;23.70;43.99
34742;BME280;20968;42.696;23.360;2023-05-20T12:03:43;95290.31;;;23.52;43.48
34742;BME280;20968;42.696;23.360;2023-05-20T12:06:11;95285.28;;;23.95;44.38
34742;BME280;20968;42.696;23.360;2023-05-20T12:08:37;95279.06;;;24.27;42.50
34742;BME280;20968;42.696;23.360;2023-05-20T12:11:03;95276.59;;;24.45;43.40
34742;BME280;20968;42.696;23.360;2023-05-20T12:13:36;95278.69;;;23.93;42.26
34742;BME280;20968;42.696;23.360;2023-05-20T12:16:27;95286.91;;;23.53;44.35
34742;BME280;20968;42.696;23.360;2023-05-20T12:19:38;95283.53;;;23.70;42.96
34742;BME280;20968;42.696;23.360;2023-05-20T12:22:30;95292.41;;;23.81;42.64
34742;BME280;20968;42.696;23.360;2023-05-20T12:24:56;95277.94;;;23.85;43.12
34742;BME280;20968;42.696;23.360;2023-05-20T12:30:40;95298.38;;;24.52;40.47
34742;BME280;20968;42.696;23.360;2023-05-20T12:33:10;95305.34;;;24.22;42.09
34742;BME280;20968;42.696;23.360;2023-05-20T12:36:04;95303.25;;;23.62;43.63
34742;BME280;20968;42.696;23.360;2023-05-20T12:38:31;95303.56;;;23.37;45.53
34742;BME280;20968;42.696;23.360;2023-05-20T12:40:57;95303.75;;;22.81;41.53
34742;BME280;20968;42.696;23.360;2023-05-20T12:43:24;95315.00;;;22.46;42.77
34742;BME280;20968;42.696;23.360;2023-05-20T12:45:50;95314.78;;;22.44;42.48
34742;BME280;20968;42.696;23.360;2023-05-20T12:48:17;95314.66;;;22.29;42.83
34742;BME280;20968;42.696;23.360;2023-05-20T12:50:46;95315.47;;;22.09;42.14
34742;BME280;20968;42.696;23.360;2023-05-20T12:53:11;95313.38;;;22.02;42.27
34742;BME280;20968;42.696;23.360;2023-05-20T12:55:36;95319.13;;;21.96;43.76
34742;BME280;20968;42.696;23.360;2023-05-20T12:58:03;95301.94;;;22.28;43.73
34742;BME280;20968;42.696;23.360;2023-05-20T13:00:41;95299.00;;;22.69;43.91
34742;BME280;20968;42.696;23.360;2023-05-20T13:03:16;95298.28;;;23.11;42.20
34742;BME280;20968;42.696;23.360;2023-05-20T13:05:44;95299.03;;;23.19;42.47
34742;BME280;20968;42.696;23.360;2023-05-20T13:08:20;95291.78;;;23.38;43.10
34742;BME280;20968;42.696;23.360;2023-05-20T13:10:47;95285.97;;;23.51;42.74
34742;BME280;20968;42.696;23.360;2023-05-20T13:13:33;95285.47;;;23.90;42.42
34742;BME280;20968;42.696;23.360;2023-05-20T13:16:48;95284.13;;;24.13;41.56
34742;BME280;20968;42.696;23.360;2023-05-20T13:19:51;95284.53;;;24.17;42.70
34742;BME280;20968;42.696;23.360;2023-05-20T13:23:02;95279.97;;;23.62;41.66
34742;BME280;20968;42.696;23.360;2023-05-20T13:25:38;95275.81;;;23.33;43.44
34742;BME280;20968;42.696;23.360;2023-05-20T13:28:18;95271.31;;;23.23;42.90
34742;BME280;20968;42.696;23.360;2023-05-20T13:30:48;95270.53;;;23.15;43.96
34742;BME280;20968;42.696;23.360;2023-05-20T13:33:14;95269.31;;;23.53;42.74
34742;BME280;20968;42.696;23.360;2023-05-20T13:35:48;95273.41;;;23.59;43.16
34742;BME280;20968;42.696;23.360;2023-05-20T13:38:17;95262.53;;;23.71;43.69
34742;BME280;20968;42.696;23.360;2023-05-20T13:40:51;95274.75;;;23.66;43.13
34742;BME280;20968;42.696;23.360;2023-05-20T13:43:29;95278.34;;;23.89;43.78
34742;BME280;20968;42.696;23.360;2023-05-20T13:46:47;95268.03;;;23.84;44.05
34742;BME280;20968;42.696;23.360;2023-05-20T13:49:38;95266.50;;;23.68;43.55
34742;BME280;20968;42.696;23.360;2023-05-20T13:52:05;95278.47;;;23.53;44.55
34742;BME280;20968;42.696;23.360;2023-05-20T13:54:33;95265.00;;;23.67;46.01
34742;BME280;20968;42.696;23.360;2023-05-20T13:57:02;95272.53;;;23.94;44.81
34742;BME280;20968;42.696;23.360;2023-05-20T13:59:52;95267.97;;;24.21;44.85
34742;BME280;20968;42.696;23.360;2023-05-20T14:02:56;95262.00;;;24.10;44.72
34742;BME280;20968;42.696;23.360;2023-05-20T14:05:31;95246.00;;;24.27;45.63
34742;BME280;20968;42.696;23.360;2023-05-20T14:08:05;95248.75;;;24.57;44.64
34742;BME280;20968;42.696;23.360;2023-05-20T14:10:30;95245.34;;;24.66;43.99
34742;BME280;20968;42.696;23.360;2023-05-20T14:12:59;95233.03;;;24.46;43.96
34742;BME280;20968;42.696;23.360;2023-05-20T14:16:06;95234.78;;;24.20;45.05
34742;BME280;20968;42.696;23.360;2023-05-20T14:19:05;95229.28;;;24.51;45.70
34742;BME280;20968;42.696;23.360;2023-05-20T14:24:53;95234.22;;;23.39;46.89
34742;BME280;20968;42.696;23.360;2023-05-20T14:28:09;95232.13;;;23.17;47.17
34742;BME280;20968;42.696;23.360;2023-05-20T14:30:47;95236.28;;;22.73;48.35
34742;BME280;20968;42.696;23.360;2023-05-20T14:33:15;95236.44;;;22.61;48.63
34742;BME280;20968;42.696;23.360;2023-05-20T14:35:43;95225.69;;;22.44;48.57
34742;BME280;20968;42.696;23.360;2023-05-20T14:38:27;95242.72;;;22.39;48.60
34742;BME280;20968;42.696;23.360;2023-05-20T14:40:55;95226.59;;;22.32;48.97
34742;BME280;20968;42.696;23.360;2023-05-20T14:43:24;95226.28;;;22.22;49.14
34742;BME280;20968;42.696;23.360;2023-05-20T14:45:51;95224.84;;;22.29;49.71
34742;BME280;20968;42.696;23.360;2023-05-20T14:48:36;95231.19;;;22.22;49.71
34742;BME280;20968;42.696;23.360;2023-05-20T14:51:17;95222.78;;;22.29;50.00
34742;BME280;20968;42.696;23.360;2023-05-20T14:53:43;95225.47;;;22.07;50.67
34742;BME280;20968;42.696;23.360;2023-05-20T14:56:13;95235.34;;;22.00;50.50
34742;BME280;20968;42.696;23.360;2023-05-20T14:58:38;95218.38;;;21.78;51.67
34742;BME280;20968;42.696;23.360;2023-05-20T15:01:14;95227.31;;;21.77;54.21
34742;BME280;20968;42.696;23.360;2023-05-20T15:03:47;95209.50;;;21.67;53.92
34742;BME280;20968;42.696;23.360;2023-05-20T15:06:19;95218.81;;;21.62;56.42
34742;BME280;20968;42.696;23.360;2023-05-20T15:08:45;95221.13;;;21.50;56.52
34742;BME280;20968;42.696;23.360;2023-05-20T15:11:24;95225.78;;;21.68;57.72
34742;BME280;20968;42.696;23.360;2023-05-20T15:14:08;95221.69;;;21.69;58.82
34742;BME280;20968;42.696;23.360;2023-05-20T15:17:06;95227.28;;;21.49;58.70
34742;BME280;20968;42.696;23.360;2023-05-20T15:19:38;95226.94;;;21.52;59.30
34742;BME280;20968;42.696;23.360;2023-05-20T15:22:05;95225.97;;;21.50;59.49
34742;BME280;20968;42.696;23.360;2023-05-20T15:24:33;95211.06;;;21.34;60.06
34742;BME280;20968;42.696;23.360;2023-05-20T15:27:13;95204.72;;;21.34;59.86
34742;BME280;20968;42.696;23.360;2023-05-20T15:29:43;95210.47;;;21.49;59.43
34742;BME280;20968;42.696;23.360;2023-05-20T15:32:12;95209.97;;;21.78;58.82
34742;BME280;20968;42.696;23.360;2023-05-20T15:34:41;95206.34;;;21.98;57.83
34742;BME280;20968;42.696;23.360;2023-05-20T15:37:13;95204.53;;;21.80;55.96
34742;BME280;20968;42.696;23.360;2023-05-20T15:39:38;95203.28;;;21.61;53.72
34742;BME280;20968;42.696;23.360;2023-05-20T15:42:10;95199.97;;;21.70;56.40
34742;BME280;20968;42.696;23.360;2023-05-20T15:44:40;95206.84;;;21.61;55.89
34742;BME280;20968;42.696;23.360;2023-05-20T15:47:06;95207.88;;;21.51;53.46
34742;BME280;20968;42.696;23.360;2023-05-20T15:49:33;95209.16;;;21.29;55.86
34742;BME280;20968;42.696;23.360;2023-05-20T15:51:59;95202.75;;;21.21;57.50
34742;BME280;20968;42.696;23.360;2023-05-20T15:54:24;95200.97;;;21.31;57.79
34742;BME280;20968;42.696;23.360;2023-05-20T15:56:51;95191.16;;;21.17;54.83
34742;BME280;20968;42.696;23.360;2023-05-20T15:59:16;95197.97;;;21.29;56.04
34742;BME280;20968;42.696;23.360;2023-05-20T16:01:50;95192.00;;;21.33;56.57
34742;BME280;20968;42.696;23.360;2023-05-20T16:04:33;95194.59;;;21.72;54.95
34742;BME280;20968;42.696;23.360;2023-05-20T16:07:13;95193.94;;;21.86;54.68
34742;BME280;20968;42.696;23.360;2023-05-20T16:09:38;95190.50;;;21.80;54.76
34742;BME280;20968;42.696;23.360;2023-05-20T16:12:31;95199.13;;;21.82;53.19
34742;BME280;20968;42.696;23.360;2023-05-20T16:15:00;95195.81;;;21.91;53.37
34742;BME280;20968;42.696;23.360;2023-05-20T16:17:41;95195.53;;;22.02;53.88
34742;BME280;20968;42.696;23.360;2023-05-20T16:20:10;95194.63;;;22.14;51.96
34742;BME280;20968;42.696;23.360;2023-05-20T16:22:39;95193.63;;;21.97;51.05
34742;BME280;20968;42.696;23.360;2023-05-20T16:25:27;95198.41;;;21.82;51.48
34742;BME280;20968;42.696;23.360;2023-05-20T16:27:52;95199.63;;;22.01;52.07
34742;BME280;20968;42.696;23.360;2023-05-20T16:30:18;95198.88;;;22.00;51.80
34742;BME280;20968;42.696;23.360;2023-05-20T16:32:50;95194.81;;;22.09;51.93
34742;BME280;20968;42.696;23.360;2023-05-20T16:35:18;95200.53;;;21.96;51.57
34742;BME280;20968;42.696;23.360;2023-05-20T16:37:48;95197.97;;;21.78;52.31
34742;BME280;20968;42.696;23.360;2023-05-20T16:40:13;95198.91;;;21.73;52.01
34742;BME280;20968;42.696;23.360;2023-05-20T16:42:38;95200.19;;;21.51;52.08
34742;BME280;20968;42.696;23.360;2023-05-20T16:45:05;95195.50;;;21.67;52.26
34742;BME280;20968;42.696;23.360;2023-05-20T16:48:00;95203.69;;;21.65;52.10
34742;BME280;20968;42.696;23.360;2023-05-20T16:50:58;95195.16;;;21.50;52.10
34742;BME280;20968;42.696;23.360;2023-05-20T16:53:50;95199.13;;;21.54;52.31
34742;BME280;20968;42.696;23.360;2023-05-20T16:56:20;95197.38;;;21.51;52.28
34742;BME280;20968;42.696;23.360;2023-05-20T16:58:46;95208.59;;;21.51;51.91
34742;BME280;20968;42.696;23.360;2023-05-20T17:01:13;95202.47;;;21.32;51.94
34742;BME280;20968;42.696;23.360;2023-05-20T17:03:38;95216.28;;;21.30;52.13
34742;BME280;20968;42.696;23.360;2023-05-20T17:06:04;95208.34;;;21.21;52.25
34742;BME280;20968;42.696;23.360;2023-05-20T17:08:32;95209.47;;;21.18;52.75
34742;BME280;20968;42.696;23.360;2023-05-20T17:10:58;95216.50;;;21.12;52.35
34742;BME280;20968;42.696;23.360;2023-05-20T17:13:24;95212.31;;;21.06;52.86
34742;BME280;20968;42.696;23.360;2023-05-20T17:15:52;95225.63;;;21.13;57.55
34742;BME280;20968;42.696;23.360;2023-05-20T17:18:17;95229.25;;;21.20;55.43